MZT1233 ZUDJ-ZBSJ
Flight info
| Callsign | MZT1233 |
|---|---|
| Flight time | N/A |
| Altitude | 37100 |
| Route | EPGAL A581 IDPOG W56 ORODO W62 AVLIS |
| Aircraft | CL60/M-SADE3FGHIJ3J4J7P2RWXY/HB1D1 |
Departure
| Time | 2026-05-07 17:12 |
|---|---|
| Airport | Tongren Dejiang Airport (Under Construction) (ZUDJ) |
Arrival
| Time | N/A |
|---|---|
| Airport | Shijiazhuang Zhengding International Airport (ZBSJ) |
| Time | Latitude | Longitude | Altitude | Speed | Heading |
|---|---|---|---|---|---|
| 2026-05-07 16:58 | 28.13741 | 108.16252 | 3661 ft | 0 kts | 274° |
| 2026-05-07 17:06 | 28.13741 | 108.16251 | 3649 ft | 0 kts | 274° |
| 2026-05-07 17:06 | 28.13741 | 108.16264 | 3649 ft | 2 kts | 274° |
| 2026-05-07 17:06 | 28.13739 | 108.16281 | 3649 ft | 2 kts | 274° |
| 2026-05-07 17:07 | 28.13738 | 108.16298 | 3649 ft | 2 kts | 274° |
| 2026-05-07 17:07 | 28.13737 | 108.16312 | 3649 ft | 0 kts | 274° |
| 2026-05-07 17:07 | 28.13740 | 108.16325 | 3649 ft | 2 kts | 235° |
| 2026-05-07 17:07 | 28.13751 | 108.16332 | 3649 ft | 0 kts | 186° |
| 2026-05-07 17:08 | 28.13754 | 108.16333 | 3649 ft | 0 kts | 183° |
| 2026-05-07 17:09 | 28.13722 | 108.16331 | 3649 ft | 8 kts | 182° |
| 2026-05-07 17:09 | 28.13674 | 108.16391 | 3649 ft | 14 kts | 95° |
| 2026-05-07 17:09 | 28.13656 | 108.16514 | 3649 ft | 16 kts | 132° |
| 2026-05-07 17:10 | 28.13565 | 108.16528 | 3649 ft | 15 kts | 184° |
| 2026-05-07 17:10 | 28.13417 | 108.16516 | 3649 ft | 30 kts | 184° |
| 2026-05-07 17:10 | 28.13209 | 108.16499 | 3649 ft | 30 kts | 184° |
| 2026-05-07 17:10 | 28.12995 | 108.16482 | 3649 ft | 30 kts | 184° |
| 2026-05-07 17:11 | 28.12778 | 108.16464 | 3649 ft | 31 kts | 184° |
| 2026-05-07 17:11 | 28.12558 | 108.16447 | 3649 ft | 31 kts | 184° |
| 2026-05-07 17:11 | 28.12350 | 108.16428 | 3649 ft | 23 kts | 186° |
| 2026-05-07 17:11 | 28.12249 | 108.16383 | 3649 ft | 7 kts | 162° |
| 2026-05-07 17:12 | 28.12247 | 108.16425 | 3649 ft | 8 kts | 3° |
| 2026-05-07 17:12 | 28.12433 | 108.16438 | 3649 ft | 68 kts | 4° |
| 2026-05-07 17:12 | 28.13238 | 108.16502 | 3650 ft | 156 kts | 4° |
| 2026-05-07 17:12 | 28.14439 | 108.16592 | 4174 ft | 184 kts | 3° |
| 2026-05-07 17:13 | 28.15780 | 108.16691 | 4960 ft | 205 kts | 3° |
| 2026-05-07 17:13 | 28.17269 | 108.16810 | 5776 ft | 224 kts | 4° |
| 2026-05-07 17:13 | 28.18841 | 108.16936 | 6756 ft | 234 kts | 3° |
| 2026-05-07 17:13 | 28.20499 | 108.17069 | 7696 ft | 244 kts | 3° |
| 2026-05-07 17:14 | 28.22195 | 108.17203 | 8629 ft | 253 kts | 2° |
| 2026-05-07 17:14 | 28.23994 | 108.17345 | 9613 ft | 265 kts | 2° |
| 2026-05-07 17:14 | 28.25826 | 108.17499 | 10739 ft | 271 kts | 6° |
| 2026-05-07 17:14 | 28.27604 | 108.18195 | 11671 ft | 279 kts | 39° |
| 2026-05-07 17:15 | 28.28774 | 108.19877 | 12728 ft | 274 kts | 73° |
| 2026-05-07 17:15 | 28.28923 | 108.21928 | 13838 ft | 268 kts | 100° |
| 2026-05-07 17:15 | 28.28587 | 108.23991 | 14855 ft | 269 kts | 102° |
| 2026-05-07 17:15 | 28.28243 | 108.26094 | 15662 ft | 278 kts | 102° |
| 2026-05-07 17:16 | 28.27891 | 108.28291 | 16453 ft | 286 kts | 102° |
| 2026-05-07 17:16 | 28.27536 | 108.30520 | 17215 ft | 294 kts | 103° |
| 2026-05-07 17:16 | 28.27168 | 108.32831 | 17906 ft | 303 kts | 103° |
| 2026-05-07 17:16 | 28.26785 | 108.35244 | 18468 ft | 317 kts | 103° |
| 2026-05-07 17:17 | 28.26387 | 108.37760 | 19005 ft | 332 kts | 102° |
| 2026-05-07 17:17 | 28.25976 | 108.40367 | 19524 ft | 343 kts | 102° |
| 2026-05-07 17:17 | 28.25728 | 108.43098 | 20006 ft | 356 kts | 87° |
| 2026-05-07 17:17 | 28.26187 | 108.45883 | 20275 ft | 377 kts | 72° |
| 2026-05-07 17:18 | 28.26992 | 108.48832 | 20373 ft | 404 kts | 71° |
| 2026-05-07 17:18 | 28.27836 | 108.51920 | 20719 ft | 418 kts | 71° |
| 2026-05-07 17:18 | 28.28700 | 108.55102 | 21236 ft | 425 kts | 71° |
| 2026-05-07 17:18 | 28.29571 | 108.58317 | 21796 ft | 428 kts | 71° |
| 2026-05-07 17:19 | 28.30446 | 108.61555 | 22337 ft | 431 kts | 71° |
| 2026-05-07 17:19 | 28.31316 | 108.64777 | 22836 ft | 434 kts | 71° |
| 2026-05-07 17:19 | 28.32206 | 108.68081 | 23364 ft | 437 kts | 71° |
| 2026-05-07 17:19 | 28.33106 | 108.71422 | 23915 ft | 442 kts | 71° |
| 2026-05-07 17:20 | 28.34003 | 108.74760 | 24439 ft | 446 kts | 71° |
| 2026-05-07 17:20 | 28.34910 | 108.78141 | 24950 ft | 451 kts | 71° |
| 2026-05-07 17:20 | 28.35827 | 108.81561 | 25444 ft | 455 kts | 71° |
| 2026-05-07 17:20 | 28.36741 | 108.84977 | 25895 ft | 460 kts | 71° |
| 2026-05-07 17:21 | 28.37675 | 108.88471 | 26332 ft | 466 kts | 71° |
| 2026-05-07 17:21 | 28.38618 | 108.92003 | 26759 ft | 471 kts | 71° |
| 2026-05-07 17:21 | 28.39581 | 108.95618 | 27170 ft | 476 kts | 71° |
| 2026-05-07 17:21 | 28.40540 | 108.99219 | 27575 ft | 480 kts | 71° |
| 2026-05-07 17:22 | 28.41508 | 109.02860 | 27980 ft | 485 kts | 71° |
| 2026-05-07 17:22 | 28.42480 | 109.06521 | 28391 ft | 489 kts | 71° |
| 2026-05-07 17:22 | 28.43460 | 109.10216 | 28780 ft | 493 kts | 71° |
| 2026-05-07 17:22 | 28.44464 | 109.13930 | 29168 ft | 495 kts | 68° |
| 2026-05-07 17:23 | 28.45863 | 109.17494 | 29543 ft | 495 kts | 60° |
| 2026-05-07 17:23 | 28.47435 | 109.21027 | 29906 ft | 499 kts | 60° |
| 2026-05-07 17:23 | 28.48992 | 109.24553 | 30265 ft | 502 kts | 59° |
| 2026-05-07 17:23 | 28.50559 | 109.28104 | 30638 ft | 504 kts | 59° |
| 2026-05-07 17:24 | 28.52115 | 109.31634 | 31002 ft | 506 kts | 59° |
| 2026-05-07 17:24 | 28.53698 | 109.35232 | 31358 ft | 508 kts | 59° |
| 2026-05-07 17:24 | 28.55285 | 109.38841 | 31696 ft | 510 kts | 59° |
| 2026-05-07 17:24 | 28.56871 | 109.42453 | 32018 ft | 512 kts | 59° |
| 2026-05-07 17:25 | 28.58391 | 109.46076 | 32327 ft | 516 kts | 63° |
| 2026-05-07 17:25 | 28.59714 | 109.49870 | 32618 ft | 519 kts | 65° |
| 2026-05-07 17:25 | 28.61029 | 109.53731 | 32921 ft | 520 kts | 65° |
| 2026-05-07 17:25 | 28.62323 | 109.57525 | 33276 ft | 519 kts | 65° |
| 2026-05-07 17:26 | 28.63640 | 109.61388 | 33663 ft | 517 kts | 65° |
| 2026-05-07 17:26 | 28.64936 | 109.65193 | 34045 ft | 515 kts | 65° |
| 2026-05-07 17:26 | 28.66263 | 109.68963 | 34396 ft | 513 kts | 64° |
| 2026-05-07 17:26 | 28.67625 | 109.72711 | 34716 ft | 512 kts | 64° |
| 2026-05-07 17:27 | 28.68980 | 109.76441 | 35017 ft | 511 kts | 63° |
| 2026-05-07 17:27 | 28.70342 | 109.80198 | 35309 ft | 511 kts | 63° |
| 2026-05-07 17:27 | 28.71699 | 109.83942 | 35566 ft | 511 kts | 63° |
| 2026-05-07 17:27 | 28.73052 | 109.87678 | 35806 ft | 511 kts | 64° |
| 2026-05-07 17:28 | 28.74402 | 109.91428 | 36038 ft | 511 kts | 64° |
| 2026-05-07 17:28 | 28.75736 | 109.95179 | 36264 ft | 511 kts | 64° |
| 2026-05-07 17:28 | 28.77064 | 109.98915 | 36474 ft | 512 kts | 64° |
| 2026-05-07 17:28 | 28.78387 | 110.02641 | 36672 ft | 512 kts | 64° |
| 2026-05-07 17:29 | 28.79727 | 110.06422 | 36866 ft | 512 kts | 64° |
| 2026-05-07 17:29 | 28.81054 | 110.10165 | 37054 ft | 513 kts | 64° |
| 2026-05-07 17:29 | 28.82396 | 110.13957 | 37223 ft | 514 kts | 64° |
| 2026-05-07 17:29 | 28.83726 | 110.17717 | 37239 ft | 519 kts | 64° |
| 2026-05-07 17:30 | 28.86449 | 110.25422 | 37209 ft | 529 kts | 64° |
| 2026-05-07 17:30 | 28.89211 | 110.33260 | 37203 ft | 535 kts | 64° |
| 2026-05-07 17:31 | 28.91966 | 110.41099 | 37205 ft | 537 kts | 64° |
| 2026-05-07 17:31 | 28.94750 | 110.49038 | 37192 ft | 538 kts | 64° |
| 2026-05-07 17:32 | 28.97515 | 110.56939 | 37172 ft | 538 kts | 64° |
| 2026-05-07 17:32 | 29.00289 | 110.64884 | 37163 ft | 538 kts | 64° |
| 2026-05-07 17:33 | 29.03060 | 110.72830 | 37155 ft | 537 kts | 64° |
| 2026-05-07 17:33 | 29.05854 | 110.80714 | 37153 ft | 537 kts | 64° |
| 2026-05-07 17:34 | 29.08657 | 110.88627 | 37154 ft | 538 kts | 64° |
| 2026-05-07 17:34 | 29.11472 | 110.96590 | 37154 ft | 538 kts | 64° |
| 2026-05-07 17:35 | 29.14262 | 111.04501 | 37153 ft | 538 kts | 64° |
| 2026-05-07 17:35 | 29.17056 | 111.12446 | 37147 ft | 538 kts | 64° |
| 2026-05-07 17:36 | 29.19835 | 111.20361 | 37143 ft | 538 kts | 64° |
| 2026-05-07 17:36 | 29.22600 | 111.28256 | 37139 ft | 538 kts | 64° |
| 2026-05-07 17:37 | 29.25375 | 111.36197 | 37138 ft | 538 kts | 64° |
| 2026-05-07 17:37 | 29.28140 | 111.44126 | 37137 ft | 538 kts | 64° |
| 2026-05-07 17:38 | 29.30922 | 111.52121 | 37135 ft | 538 kts | 64° |
| 2026-05-07 17:38 | 29.33672 | 111.60042 | 37134 ft | 538 kts | 64° |
| 2026-05-07 17:39 | 29.36964 | 111.67682 | 37136 ft | 529 kts | 52° |
| 2026-05-07 17:39 | 29.41004 | 111.74735 | 37132 ft | 529 kts | 51° |
| 2026-05-07 17:40 | 29.45020 | 111.81754 | 37131 ft | 529 kts | 51° |
| 2026-05-07 17:40 | 29.49081 | 111.88864 | 37131 ft | 530 kts | 51° |
| 2026-05-07 17:41 | 29.53100 | 111.95914 | 37131 ft | 530 kts | 51° |
| 2026-05-07 17:41 | 29.57138 | 112.03009 | 37131 ft | 530 kts | 51° |
| 2026-05-07 17:42 | 29.61172 | 112.10111 | 37130 ft | 530 kts | 51° |
| 2026-05-07 17:42 | 29.65172 | 112.17163 | 37130 ft | 530 kts | 51° |
| 2026-05-07 17:43 | 29.69214 | 112.24302 | 37129 ft | 530 kts | 51° |
| 2026-05-07 17:43 | 29.73212 | 112.31376 | 37162 ft | 529 kts | 51° |
| 2026-05-07 17:44 | 29.77213 | 112.38500 | 37199 ft | 530 kts | 51° |
| 2026-05-07 17:44 | 29.81193 | 112.45606 | 37210 ft | 530 kts | 51° |
| 2026-05-07 17:45 | 29.85204 | 112.52782 | 37218 ft | 530 kts | 51° |
| 2026-05-07 17:45 | 29.89185 | 112.59917 | 37219 ft | 530 kts | 51° |
| 2026-05-07 17:46 | 29.93156 | 112.67046 | 37220 ft | 530 kts | 52° |
| 2026-05-07 17:46 | 29.97140 | 112.74210 | 37220 ft | 530 kts | 52° |
| 2026-05-07 17:47 | 30.01114 | 112.81368 | 37222 ft | 531 kts | 52° |
| 2026-05-07 17:47 | 30.05086 | 112.88536 | 37223 ft | 531 kts | 52° |
| 2026-05-07 17:48 | 30.09088 | 112.95772 | 37223 ft | 532 kts | 52° |
| 2026-05-07 17:48 | 30.13062 | 113.02971 | 37224 ft | 532 kts | 52° |
| 2026-05-07 17:49 | 30.17028 | 113.10166 | 37225 ft | 532 kts | 52° |
| 2026-05-07 17:49 | 30.20998 | 113.17384 | 37226 ft | 532 kts | 52° |
| 2026-05-07 17:50 | 30.25021 | 113.24581 | 37226 ft | 531 kts | 51° |
| 2026-05-07 17:50 | 30.29043 | 113.31747 | 37230 ft | 531 kts | 51° |
| 2026-05-07 17:51 | 30.33056 | 113.38912 | 37230 ft | 530 kts | 51° |